Tiempo atmosférico en la estación meteorológica de Castell Del Ferro, Granada (235 m.)



Fecha
DESCASC
Temp. máxima en grados centígrados (hora)
DESCASC
Temp. mínima en grados centígrados (hora)
DESCASC
Temp. media en grados centígrados
DESCASC
Racha de viento máxima en m/sg (hora)
DESCASC
Velocidad máxima media en intervalos de 10 minutos(hora)
DESCASC
Precipitaciones diarias en mm
DESCASC
Precipitaciones de 00:00 a 06:00 en mm
DESCASC
Precipitaciones de 06:00 a 12:00 en mm
DESCASC
Precipitaciones de 12:00 a 18:00 en mm
DESCASC
Precipitaciones de 18:00 a 24:00 en mm
DESCASC

Gráficas

Temp. máximas Temp. mínimas Temp. medias Precipitaciones Rachas de viento máximas Velocidades máximas media en intervalos de 10 minutos

Datos horarios

Fecha y hora oficial Temperatura (ºC) Velocidad del viento (km/h) Dirección del viento Racha (km/h) Dirección de racha Precipitación (mm) Presión (hPa) Tendencia (hPa) Humedad (%)
2020-11-23 23:00:00 12 4 Oeste 8 Sudoeste 0 -- -- 79
2020-11-23 22:00:00 12 0 Calma 7 Oeste 0 -- -- 79
2020-11-23 21:00:00 12.4 2 Noroeste 7 Noroeste 0 -- -- 79
2020-11-23 20:00:00 12.5 2 Noroeste 6 Nordeste 0 -- -- 77
2020-11-23 19:00:00 13.1 2 Sudeste 12 Este 0 -- -- 75
2020-11-23 18:00:00 14.4 6 Este 10 Este 0 -- -- 71
2020-11-23 17:00:00 15.1 8 Este 17 Sudeste 0 -- -- 69
2020-11-23 16:00:00 15.5 11 Sudeste 19 Este 0 -- -- 66
2020-11-23 15:00:00 16.1 11 Este 21 Sudeste 0 -- -- 64
2020-11-23 14:00:00 16.4 12 Sudeste 19 Este 0 -- -- 63
2020-11-23 13:00:00 16.3 12 Este 22 Este 0 -- -- 60
2020-11-23 12:00:00 16.2 12 Este 21 Este 0 -- -- 62
2020-11-23 11:00:00 16 12 Este 18 Este 0 -- -- 62
2020-11-23 10:00:00 15.8 8 Este 14 Este 0 -- -- 62
2020-11-23 09:00:00 12.9 2 Noroeste 8 Oeste 0 -- -- 71
2020-11-23 08:00:00 11.3 3 Oeste 7 Noroeste 0 -- -- 76
2020-11-23 07:00:00 11.7 5 Oeste 10 Oeste 0 -- -- 75
2020-11-23 06:00:00 11.8 3 Oeste 9 Oeste 0 -- -- 75
2020-11-23 05:00:00 11.7 2 Oeste 8 Noroeste 0 -- -- 75
2020-11-23 04:00:00 11.3 2 Noroeste 5 Noroeste 0 -- -- 78
2020-11-23 03:00:00 11.5 0 Calma 4 Sudoeste 0 -- -- 77
2020-11-23 02:00:00 11.8 3 Sudeste 8 Norte 0 -- -- 77
2020-11-23 01:00:00 12.6 2 Oeste 11 Oeste 0 -- -- 73
2020-11-23 00:00:00 12.6 3 Oeste 8 Sudoeste 0 -- -- 74
2020-11-22 23:00:00 13.1 0 Calma 8 Este 0 -- -- 74
2020-11-22 22:00:00 14 0 Calma 6 Oeste 0 -- -- 74
2020-11-22 21:00:00 13.9 3 Sudoeste 7 Sudoeste 0 -- -- 75
2020-11-22 20:00:00 13.9 2 Oeste 5 Oeste 0 -- -- 76
2020-11-22 19:00:00 14 0 Calma 8 Sudeste 0 -- -- 76
2020-11-22 18:00:00 13.8 4 Sudeste 8 Sudeste 0 -- -- 75
2020-11-22 17:00:00 14.6 4 Sudeste 11 Sur 0 -- -- 66
2020-11-22 16:00:00 16.9 4 Sudeste 13 Sudeste 0 -- -- 57
2020-11-22 15:00:00 17.1 8 Este 15 Sudeste 0 -- -- 51
2020-11-22 14:00:00 17.3 10 Sudeste 17 Sudeste 0 -- -- 48
2020-11-22 13:00:00 17.2 9 Este 19 Sudeste 0 -- -- 53
2020-11-22 12:00:00 17.1 10 Este 20 Sudeste 0 -- -- 50
2020-11-22 11:00:00 17 8 Este 18 Este 0 -- -- 54
2020-11-22 10:00:00 16.2 5 Nordeste 10 Nordeste 0 -- -- 55
2020-11-22 09:00:00 13.7 3 Oeste 9 Oeste 0 -- -- 63
2020-11-22 08:00:00 12.1 5 Oeste 9 Oeste 0 -- -- 69
2020-11-22 07:00:00 12.4 0 Calma 6 Nordeste 0 -- -- 72
2020-11-22 06:00:00 12.9 0 Calma 6 Este 0 -- -- 72
2020-11-22 05:00:00 12.6 0 Calma 9 Este 0 -- -- 73
2020-11-22 04:00:00 13 4 Este 10 Nordeste 0 -- -- 71
2020-11-22 03:00:00 12.6 5 Oeste 14 Sudeste 0 -- -- 72
2020-11-22 02:00:00 12.9 5 Este 15 Este 0 -- -- 72
2020-11-22 01:00:00 13.6 10 Este 23 Este 0 -- -- 71
2020-11-22 00:00:00 14 13 Este 29 Este 0 -- -- 75
2020-11-21 23:00:00 14.3 15 Este 28 Este 0 -- -- 79
2020-11-21 22:00:00 14.6 17 Este 28 Este 0 -- -- 80
2020-11-21 21:00:00 14.5 14 Este 24 Nordeste 0 -- -- 82
2020-11-21 20:00:00 14.3 11 Este 27 Este 0.4 -- -- 85
2020-11-21 19:00:00 14.6 5 Este 29 Este 0.4 -- -- 88
2020-11-21 18:00:00 15.6 19 Este 32 Este 0 -- -- 78
2020-11-21 17:00:00 15.8 20 Este 32 Este 0 -- -- 81
2020-11-21 16:00:00 16.8 19 Este 29 Este 0 -- -- 75
2020-11-21 15:00:00 17.4 17 Este 28 Este 0 -- -- 69
2020-11-21 14:00:00 18.1 14 Este 31 Sudeste 0 -- -- 67
2020-11-21 13:00:00 17.7 19 Este 30 Este 0 -- -- 69
2020-11-21 12:00:00 17 13 Este 24 Este 0 -- -- 66
2020-11-21 11:00:00 15.7 14 Este 26 Este 0 -- -- 73
2020-11-21 10:00:00 15.3 12 Este 18 Sudeste 0 -- -- 77
2020-11-21 09:00:00 15.1 11 Sudeste 26 Este 0 -- -- 79
2020-11-21 08:00:00 15.1 13 Sudeste 24 Sudeste 0 -- -- 81
2020-11-21 07:00:00 15.1 15 Sudeste 24 Este 0 -- -- 82
2020-11-21 06:00:00 15 14 Este 23 Este 0 -- -- 88
2020-11-21 05:00:00 15.4 13 Este 20 Este 0 -- -- 84
2020-11-21 04:00:00 15.6 12 Este 22 Este 0 -- -- 86
2020-11-21 03:00:00 15.8 12 Sudeste 18 Sudeste 0 -- -- 88
2020-11-21 02:00:00 15.8 10 Este 15 Este 0 -- -- 89
2020-11-21 01:00:00 15.8 5 Sudeste 9 Sudeste 0 -- -- 90
2020-11-21 00:00:00 15.9 0 Calma 8 Sudeste 0 -- -- 91
2020-11-20 23:00:00 15.9 5 Sudeste 9 Sudeste 0 -- -- 90
2020-11-20 22:00:00 16.1 0 Calma 5 Este 0 -- -- 88
2020-11-20 21:00:00 16.2 0 Calma 3 Sudoeste 0 -- -- 85
2020-11-20 20:00:00 16.2 0 Calma 3 Sur 0 -- -- 86
2020-11-20 19:00:00 16.2 2 Sudoeste 4 Oeste 0 -- -- 81
2020-11-20 18:00:00 16.3 3 Este 8 Este 0 -- -- 84
2020-11-20 17:00:00 16.7 5 Este 8 Sudeste 0 -- -- 82
2020-11-20 16:00:00 18.1 5 Sudeste 15 Sudeste 0 -- -- 72
2020-11-20 15:00:00 18.8 7 Sudeste 15 Sudeste 0 -- -- 67
2020-11-20 14:00:00 19.3 8 Sudeste 15 Sudeste 0 -- -- 64
2020-11-20 13:00:00 19.3 9 Sudeste 15 Este 0 -- -- 65
2020-11-20 12:00:00 19.4 10 Sudeste 16 Sudeste 0 -- -- 64
2020-11-20 11:00:00 19.2 8 Sudeste 13 Sudeste 0 -- -- 64
2020-11-20 10:00:00 18.1 4 Nordeste 6 Nordeste 0 -- -- 68
2020-11-20 09:00:00 15.5 5 Oeste 9 Oeste 0 -- -- 77
2020-11-20 08:00:00 13.5 3 Sudoeste 5 Sudoeste 0 -- -- 83
2020-11-20 07:00:00 13.9 3 Sudoeste 10 Sudoeste 0 -- -- 81
2020-11-20 06:00:00 14.2 3 Sudoeste 6 Oeste 0 -- -- 79
2020-11-20 05:00:00 14.4 3 Sudoeste 6 Oeste 0 -- -- 79
2020-11-20 04:00:00 14.9 3 Oeste 6 Oeste 0 -- -- 76
2020-11-20 03:00:00 14.9 5 Oeste 8 Oeste 0 -- -- 76
2020-11-20 02:00:00 15.1 0 Calma 6 Oeste 0 -- -- 76
2020-11-20 01:00:00 14.9 4 Oeste 8 Oeste 0 -- -- 77
2020-11-20 00:00:00 14.6 0 Calma 6 Sudoeste 0 -- -- 78
2020-11-19 23:00:00 14.6 0 Calma 6 Sudoeste 0 -- -- 78
2020-11-19 22:00:00 15.2 3 Sur 9 Sur 0 -- -- 76
2020-11-19 21:00:00 15.6 2 Sur 6 Este 0 -- -- 76
2020-11-19 20:00:00 16.5 3 Sudeste 8 Este 0 -- -- 77
2020-11-19 19:00:00 16.5 3 Sudeste 11 Sudeste 0 -- -- 79
2020-11-19 18:00:00 16.8 7 Este 13 Sudeste 0 -- -- 79
2020-11-19 17:00:00 17.4 9 Este 13 Este 0 -- -- 77
2020-11-19 16:00:00 17.4 3 Este 9 Este 0 -- -- 76
2020-11-19 15:00:00 17.2 2 Sudoeste 12 Sudeste 0 -- -- 80
2020-11-19 14:00:00 17.2 4 Sudeste 15 Sudeste 0 -- -- 79
2020-11-19 13:00:00 17.9 8 Este 17 Este 0 -- -- 77
2020-11-19 12:00:00 18.2 12 Este 20 Sudeste 0 -- -- 75
2020-11-19 11:00:00 17.4 10 Este 17 Sudeste 0 -- -- 77
2020-11-19 10:00:00 16.5 0 Calma 5 Sudoeste 0 -- -- 80
2020-11-19 09:00:00 15.7 0 Calma 4 Noroeste 0 -- -- 84
2020-11-19 08:00:00 15.4 0 Calma -- -- 0 -- -- 84
2020-11-19 07:00:00 15.3 0 Calma -- -- 0 -- -- 85
2020-11-19 06:00:00 15.5 0 Calma 3 Noroeste 0 -- -- 84
2020-11-19 05:00:00 15.1 3 Oeste 5 Oeste 0 -- -- 85
2020-11-19 04:00:00 14.3 3 Oeste 5 Sudoeste 0 -- -- 88
2020-11-19 03:00:00 14.3 3 Sur 5 Sur 0 -- -- 89
2020-11-19 02:00:00 14.6 2 Sur 8 Sudeste 0 -- -- 86
2020-11-19 01:00:00 15.2 0 Calma 5 Sudoeste 0 -- -- 84
2020-11-19 00:00:00 15.9 3 Oeste 9 Oeste 0 -- -- 81
2020-11-18 23:00:00 14.8 2 Sur 6 Oeste 0 -- -- 85
2020-11-18 22:00:00 15.3 4 Oeste 7 Oeste 0 -- -- 84
2020-11-18 21:00:00 15.3 0 Calma 8 Oeste 0 -- -- 84
2020-11-18 20:00:00 14.9 0 Calma 4 Oeste 0 -- -- 85
2020-11-18 19:00:00 15.4 0 Calma 4 Noroeste 0 -- -- 82
2020-11-18 18:00:00 16.2 0 Calma 5 Sudoeste 0 -- -- 79
2020-11-18 17:00:00 17.5 0 Calma 10 Sudeste 0 -- -- 75
2020-11-18 16:00:00 18.1 7 Sudeste 13 Sudeste 0 -- -- 73
2020-11-18 15:00:00 18.7 7 Sudeste 12 Sudeste 0 -- -- 71
2020-11-18 14:00:00 18.9 6 Sudeste 14 Sudeste 0 -- -- 72
2020-11-18 13:00:00 18.2 6 Este 13 Sudeste 0 -- -- 73
2020-11-18 12:00:00 17.8 8 Este 14 Sudeste 0 -- -- 80
2020-11-18 11:00:00 17.5 5 Este 9 Este 0 -- -- 83
2020-11-18 10:00:00 17.1 4 Este 8 Este 0 -- -- 87
2020-11-18 09:00:00 16.6 0 Calma 3 Sudeste 0 -- -- 90
2020-11-18 08:00:00 16.3 0 Calma 3 Sur 0 -- -- 91
2020-11-18 07:00:00 16.3 0 Calma 7 Este 0 -- -- 92
2020-11-18 06:00:00 16.4 4 Sudeste 7 Sudeste 0 -- -- 90
2020-11-18 05:00:00 16.2 0 Calma 4 Sudoeste 0 -- -- 88
2020-11-18 04:00:00 16.1 0 Calma 5 Este 0 -- -- 89
2020-11-18 03:00:00 16.1 0 Calma 13 Sudeste 0 -- -- 91
2020-11-18 02:00:00 16.1 9 Sudeste 18 Sur 0 -- -- 89
2020-11-18 01:00:00 16.5 0 Calma 6 Oeste 0 -- -- 77
2020-11-18 00:00:00 17.4 6 Oeste 9 Oeste 0 -- -- 75
2020-11-17 23:00:00 17.1 6 Oeste 12 Oeste 0 -- -- 78
2020-11-17 22:00:00 16.7 3 Oeste 8 Oeste 0 -- -- 82
2020-11-17 21:00:00 16.1 3 Sudoeste 6 Sudoeste 0 -- -- 87
2020-11-17 20:00:00 16.5 3 Oeste 6 Oeste 0 -- -- 87
2020-11-17 19:00:00 17.4 0 Calma 5 Sur 0 -- -- 84
2020-11-17 18:00:00 17.8 0 Calma 6 Sudeste 0 -- -- 83
2020-11-17 17:00:00 18.1 2 Sudeste 9 Sudeste 0 -- -- 82
2020-11-17 16:00:00 17.9 4 Este 14 Este 0 -- -- 85
2020-11-17 15:00:00 17.8 13 Sudeste 18 Sudeste 0 -- -- 85
2020-11-17 14:00:00 18.7 9 Sudeste 26 Sudeste 0 -- -- 81
2020-11-17 13:00:00 20.2 14 Sudeste 22 Sudeste 0 -- -- 71
2020-11-17 12:00:00 21.8 10 Sudeste 18 Sudeste 0 -- -- 62
2020-11-17 11:00:00 22.1 4 Nordeste 6 Nordeste 0 -- -- 60
2020-11-17 10:00:00 20.8 3 Norte 5 Noroeste 0 -- -- 63
2020-11-17 09:00:00 19.2 2 Este 6 Este 0 -- -- 68
2020-11-17 08:00:00 17.9 2 Sudoeste 5 Sudoeste 0 -- -- 67
2020-11-17 07:00:00 18.3 3 Sudoeste 5 Sudoeste 0 -- -- 65
2020-11-17 06:00:00 18.6 0 Calma 5 Sudeste 0 -- -- 64
2020-11-17 05:00:00 18.8 3 Sudoeste 6 Oeste 0 -- -- 63
2020-11-17 04:00:00 19.2 2 Oeste 4 Noroeste 0 -- -- 60
2020-11-17 03:00:00 19.3 2 Sudoeste 9 Oeste 0 -- -- 59
2020-11-17 02:00:00 19.2 3 Oeste 12 Sur 0 -- -- 56
2020-11-17 01:00:00 20.4 3 Sudeste 11 Sudeste 0 -- -- 52
2020-11-17 00:00:00 20.1 0 Calma 12 Sur 0 -- -- 52
2020-11-16 23:00:00 20 2 Sur 9 Sudeste 0 -- -- 53
2020-11-16 22:00:00 20.4 4 Sur 9 Nordeste 0 -- -- 54
2020-11-16 21:00:00 20.7 3 Sudeste 8 Oeste 0 -- -- 54
2020-11-16 20:00:00 20.1 4 Sudoeste 13 Oeste 0 -- -- 63
2020-11-16 19:00:00 19 4 Sur 13 Sur 0 -- -- 76
2020-11-16 18:00:00 19.2 3 Nordeste 12 Sudoeste 0 -- -- 70
2020-11-16 17:00:00 20.2 7 Sur 13 Sur 0 -- -- 67
2020-11-16 16:00:00 20.8 8 Sur 27 Sur 0 -- -- 65
2020-11-16 15:00:00 25.8 10 Sudoeste 43 Oeste 0 -- -- 50
2020-11-16 14:00:00 26.9 24 Noroeste 36 Oeste 0 -- -- 37
2020-11-16 13:00:00 23.1 8 Noroeste 35 Oeste 0 -- -- 59
2020-11-16 12:00:00 25.8 19 Oeste 42 Oeste 0 -- -- 39
2020-11-16 11:00:00 24.7 21 Oeste 46 Oeste 0 -- -- 36
2020-11-16 10:00:00 23.2 22 Oeste 36 Oeste 0 -- -- 36
2020-11-16 09:00:00 21.5 21 Oeste 37 Oeste 0 -- -- 45
2020-11-16 08:00:00 20.9 26 Oeste 38 Oeste 0 -- -- 53
2020-11-16 07:00:00 21.6 20 Oeste 31 Oeste 0 -- -- 50
2020-11-16 06:00:00 21.7 16 Oeste 24 Oeste 0 -- -- 50
2020-11-16 05:00:00 21.7 12 Oeste 23 Oeste 0 -- -- 51
2020-11-16 04:00:00 21.1 14 Oeste 22 Noroeste 0 -- -- 53
2020-11-16 03:00:00 18.1 4 Noroeste 13 Noroeste 0 -- -- 71
2020-11-16 02:00:00 16 0 Calma 6 Noroeste 0 -- -- 88
2020-11-16 01:00:00 16 0 Calma 5 Este 0 -- -- 88
2020-11-16 00:00:00 16.1 0 Calma 6 Oeste 0 -- -- 89
2020-11-15 23:00:00 16.1 0 Calma 3 Sudoeste 0 -- -- 90
2020-11-15 22:00:00 16.1 0 Calma 6 Sudoeste 0 -- -- 90
2020-11-15 21:00:00 16.3 3 Sur 6 Norte 0 -- -- 93
2020-11-15 20:00:00 16.1 2 Noroeste 8 Sudeste 0 -- -- 93
2020-11-15 19:00:00 16.5 2 Noroeste 6 Oeste 0 -- -- 92
2020-11-15 18:00:00 17.5 0 Calma 6 Este 0 -- -- 91
2020-11-15 17:00:00 18.8 0 Calma 5 Nordeste 0 -- -- 85
2020-11-15 16:00:00 20.3 4 Nordeste 9 Nordeste 0 -- -- 75
2020-11-15 15:00:00 20.3 5 Este 13 Nordeste 0 -- -- 77
2020-11-15 14:00:00 20.4 8 Este 16 Este 0 -- -- 76
2020-11-15 13:00:00 19.7 6 Este 20 Este 0 -- -- 76
2020-11-15 12:00:00 20 10 Este 14 Este 0 -- -- 75
2020-11-15 11:00:00 19.4 6 Sudeste 10 Sudeste 0 -- -- 75
2020-11-15 10:00:00 19.7 3 Este 7 Nordeste 0 -- -- 72
2020-11-15 09:00:00 16.8 3 Noroeste 9 Oeste 0 -- -- 86
2020-11-15 08:00:00 14.7 0 Calma 8 Sur 0 -- -- 93
2020-11-15 07:00:00 14.7 4 Sur 10 Oeste 0 -- -- 92
2020-11-15 06:00:00 14.8 0 Calma 8 Sudoeste 0 -- -- 92
2020-11-15 05:00:00 14.8 4 Sur 10 Oeste 0 -- -- 93
2020-11-15 04:00:00 15 6 Noroeste 10 Oeste 0 -- -- 92
2020-11-15 03:00:00 15.6 0 Calma 5 Sur 0 -- -- 92
2020-11-15 02:00:00 15.2 4 Sur 7 Sudoeste 0 -- -- 93
2020-11-15 01:00:00 15.3 0 Calma 6 Sudoeste 0 -- -- 92
2020-11-15 00:00:00 15.6 4 Sur 9 Oeste 0 -- -- 87
2020-11-14 23:00:00 16.1 2 Sudoeste 6 Sudoeste 0 -- -- 86
2020-11-14 22:00:00 16.8 3 Oeste 20 Oeste 0 -- -- 83
2020-11-14 21:00:00 17.2 4 Sur 26 Oeste 0 -- -- 79
2020-11-14 20:00:00 16.8 2 Sudeste 5 Sur 0 -- -- 79
2020-11-14 19:00:00 17.2 0 Calma 6 Este 0 -- -- 75
2020-11-14 18:00:00 18.1 4 Oeste 13 Oeste 0 -- -- 75
2020-11-14 17:00:00 18.6 8 Oeste 17 Oeste 0 -- -- 75
2020-11-14 16:00:00 19.3 4 Este 20 Sudoeste 0 -- -- 76
2020-11-14 15:00:00 19.1 10 Oeste 20 Oeste 0 -- -- 77
2020-11-14 14:00:00 20.4 4 Sudeste 15 Sudoeste 0 -- -- 71
2020-11-14 13:00:00 19.9 7 Sudeste 20 Sudeste 0 -- -- 69
2020-11-14 12:00:00 19.1 9 Sudeste 13 Sudeste 0 -- -- 72
2020-11-14 11:00:00 19.5 4 Este 7 Este 0 -- -- 68
2020-11-14 10:00:00 18.3 3 Sudeste 5 Sudeste 0 -- -- 73
2020-11-14 09:00:00 16.4 3 Oeste 8 Oeste 0 -- -- 81
2020-11-14 08:00:00 16 0 Calma 5 Oeste 0 -- -- 83
2020-11-14 07:00:00 16.3 2 Sudeste 10 Oeste 0 -- -- 80
2020-11-14 06:00:00 16.2 0 Calma 6 Sur 0 -- -- 80
2020-11-14 05:00:00 16.6 4 Sur 6 Sudoeste 0 -- -- 76
2020-11-14 04:00:00 16.2 0 Calma 8 Sudoeste 0 -- -- 77
2020-11-14 03:00:00 16 2 Oeste 5 Oeste 0 -- -- 80
2020-11-14 02:00:00 16.2 0 Calma 5 Oeste 0 -- -- 81
2020-11-14 01:00:00 16.3 0 Calma 4 Oeste 0 -- -- 79
2020-11-14 00:00:00 16.5 3 Sur 5 Sur 0 -- -- 77
2020-11-13 23:00:00 16.7 3 Oeste 7 Oeste 0 -- -- 78
2020-11-13 22:00:00 16.5 2 Oeste 3 Oeste 0 -- -- 80
2020-11-13 21:00:00 16.2 0 Calma 3 Sur 0 -- -- 80
2020-11-13 20:00:00 16.6 2 Oeste 5 Sudoeste 0 -- -- 79
2020-11-13 19:00:00 16.9 3 Oeste 4 Oeste 0 -- -- 79
2020-11-13 18:00:00 17.6 3 Sur 7 Este 0 -- -- 74
2020-11-13 17:00:00 18.6 3 Sudeste 12 Sudeste 0 -- -- 68
2020-11-13 16:00:00 19.6 7 Sudeste 16 Sur 0 -- -- 65
2020-11-13 15:00:00 20.6 6 Sur 17 Sur 0 -- -- 61
2020-11-13 14:00:00 21.1 9 Sur 17 Sudeste 0 -- -- 58
2020-11-13 13:00:00 20.3 10 Sudeste 19 Sudeste 0 -- -- 61
2020-11-13 12:00:00 20.1 10 Sudeste 19 Sudeste 0 -- -- 64
2020-11-13 11:00:00 19.1 4 Sudeste 8 Sudeste 0 -- -- 67
2020-11-13 10:00:00 18.1 2 Sudeste 5 Sudeste 0 -- -- 70
2020-11-13 09:00:00 16.8 0 Calma 8 Sudoeste 0 -- -- 75
2020-11-13 08:00:00 16.2 5 Sudoeste 12 Sudoeste 0 -- -- 76
2020-11-13 07:00:00 16.1 7 Sudoeste 11 Sudoeste 0 -- -- 74
2020-11-13 06:00:00 16 6 Sudoeste 9 Oeste 0 -- -- 74
2020-11-13 05:00:00 15.1 0 Calma 4 Oeste 0 -- -- 85
2020-11-13 04:00:00 15.3 4 Oeste 10 Noroeste 0 -- -- 86
2020-11-13 03:00:00 15.5 4 Oeste 9 Noroeste 0 -- -- 87
2020-11-13 02:00:00 15.8 3 Sur 7 Sur 0 -- -- 89
2020-11-13 01:00:00 16 0 Calma 6 Sudeste 0 -- -- 89
2020-11-13 00:00:00 16.2 3 Sur 11 Sudeste 0 -- -- 89
2020-11-12 23:00:00 16.4 7 Sudeste 12 Sudeste 0 -- -- 88
2020-11-12 22:00:00 16.2 3 Sur 5 Sur 0 -- -- 87
2020-11-12 21:00:00 15.9 2 Sudeste 7 Sudeste 0 -- -- 86
2020-11-12 20:00:00 16.2 3 Sudeste 6 Sudeste 0 -- -- 84
2020-11-12 19:00:00 16.8 0 Calma 4 Sur 0 -- -- 84
2020-11-12 18:00:00 16.8 3 Sudeste 14 Sudeste 0 -- -- 83
2020-11-12 17:00:00 17 7 Sudeste 18 Sudeste 0 -- -- 79
2020-11-12 16:00:00 18.2 11 Este 19 Sudeste 0 -- -- 70
2020-11-12 15:00:00 18.6 12 Sudeste 21 Sudeste 0 -- -- 66
2020-11-12 14:00:00 19 10 Este 15 Sudeste 0 -- -- 58
2020-11-12 13:00:00 19.3 7 Este 16 Sudeste 0 -- -- 49
2020-11-12 12:00:00 19.6 5 Sudeste 12 Sudeste 0 -- -- 44
2020-11-12 11:00:00 18.4 6 Este 15 Este 0 -- -- 59
2020-11-12 10:00:00 17.5 3 Norte 10 Sudoeste 0 -- -- 60
2020-11-12 09:00:00 16.1 5 Sur 8 Sudoeste 0 -- -- 62
2020-11-12 08:00:00 14.4 4 Sudoeste 6 Sudoeste 0 -- -- 63
2020-11-12 07:00:00 14.1 2 Oeste 9 Oeste 0 -- -- 67
2020-11-12 06:00:00 13.8 4 Oeste 6 Oeste 0 -- -- 75
2020-11-12 05:00:00 14 0 Calma 9 Sudoeste 0 -- -- 73
2020-11-12 04:00:00 14.1 0 Calma 6 Sudoeste 0 -- -- 71
2020-11-12 03:00:00 14.9 4 Oeste 8 Oeste 0 -- -- 70
2020-11-12 02:00:00 14.5 2 Sur 6 Sudeste 0 -- -- 76
2020-11-12 01:00:00 15.1 3 Sur 6 Sur 0 -- -- 71
2020-11-12 00:00:00 14.5 5 Oeste 9 Oeste 0 -- -- 80
2020-11-11 23:00:00 14.4 0 Calma 6 Noroeste 0 -- -- 87
2020-11-11 22:00:00 14.7 3 Sur 8 Sudeste 0 -- -- 87
2020-11-11 21:00:00 15.1 3 Sur 6 Oeste 0 -- -- 86
2020-11-11 20:00:00 15.7 3 Sudeste 6 Este 0 -- -- 85
2020-11-11 19:00:00 16.3 2 Sudeste 11 Nordeste 0 -- -- 86
2020-11-11 18:00:00 16.4 2 Sudeste 15 Sudeste 0 -- -- 86
2020-11-11 17:00:00 16.9 8 Este 22 Este 0 -- -- 84
2020-11-11 16:00:00 17.6 14 Este 22 Este 0 -- -- 78
2020-11-11 15:00:00 17.5 11 Sudeste 21 Este 0 -- -- 80
2020-11-11 14:00:00 18.9 14 Este 27 Sudeste 0 -- -- 72
2020-11-11 13:00:00 19 15 Sudeste 23 Este 0 -- -- 67
2020-11-11 12:00:00 18.8 13 Este 22 Este 0 -- -- 65
2020-11-11 11:00:00 18.6 8 Este 16 Sudeste 0 -- -- 59
2020-11-11 10:00:00 18.2 8 Este 15 Sudeste 0 -- -- 61
2020-11-11 09:00:00 16.9 6 Este 10 Este 0 -- -- 65
2020-11-11 08:00:00 14.7 5 Sudeste 11 Sudeste 0 -- -- 76
2020-11-11 07:00:00 14.1 3 Sudeste 9 Sudeste 0 -- -- 83
2020-11-11 06:00:00 14.2 2 Sudeste 5 Oeste 0 -- -- 85
2020-11-11 05:00:00 14.4 2 Oeste 5 Noroeste 0 -- -- 86
2020-11-11 04:00:00 14.7 3 Oeste 8 Este 0 -- -- 85
2020-11-11 03:00:00 14.8 3 Sudeste 10 Nordeste 0 -- -- 87
2020-11-11 02:00:00 15.1 7 Sudeste 13 Sudeste 0 -- -- 86
2020-11-11 01:00:00 14.5 4 Sur 6 Sur 0 -- -- 90
2020-11-11 00:00:00 15 4 Sur 9 Este 0 -- -- 90
2020-11-10 23:00:00 15.8 0 Calma 9 Este 0 -- -- 88
2020-11-10 22:00:00 16.2 6 Este 12 Este 0 -- -- 89
2020-11-10 21:00:00 16 0 Calma 6 Este 0 -- -- 88
2020-11-10 20:00:00 15.9 5 Sudeste 10 Este 0 -- -- 88
2020-11-10 19:00:00 15.9 2 Sudeste 6 Este 0 -- -- 87
2020-11-10 18:00:00 16.5 3 Sur 9 Sudeste 0 -- -- 80
2020-11-10 17:00:00 17.1 6 Sudeste 13 Sudeste 0 -- -- 77
2020-11-10 16:00:00 18.9 4 Sudeste 15 Sudeste 0 -- -- 71
2020-11-10 15:00:00 19.6 8 Sudeste 14 Sudeste 0 -- -- 62
2020-11-10 14:00:00 20.1 8 Sudeste 14 Sudeste 0 -- -- 59
2020-11-10 13:00:00 20.1 8 Sudeste 15 Sudeste 0 -- -- 60
2020-11-10 12:00:00 20.3 4 Este 9 Este 0 -- -- 62
2020-11-10 11:00:00 19.3 4 Sudeste 14 Sudeste 0 -- -- 74
2020-11-10 10:00:00 19 8 Sudeste 13 Sudeste 0 -- -- 74
2020-11-10 09:00:00 16.4 0 Calma 5 Oeste 0 -- -- 80
2020-11-10 08:00:00 14.8 3 Sudoeste 6 Sudoeste 0 -- -- 90
2020-11-10 07:00:00 14.6 0 Calma 6 Oeste 0 -- -- 86
2020-11-10 06:00:00 14.5 2 Oeste 4 Sudeste 0 -- -- 85
2020-11-10 05:00:00 14.9 2 Nordeste 7 Oeste 0 -- -- 83
2020-11-10 04:00:00 14.4 0 Calma 4 Oeste 0 -- -- 90
2020-11-10 03:00:00 14.6 0 Calma 7 Oeste 0 -- -- 90
2020-11-10 02:00:00 14.4 3 Sur 9 Sur 0 -- -- 89
2020-11-10 01:00:00 14.5 2 Sudoeste 8 Sur 0 -- -- 84
2020-11-10 00:00:00 14.1 0 Calma 4 Sur 0 -- -- 89
2020-11-09 23:00:00 14.2 3 Sudoeste 6 Sudoeste 0 -- -- 88
2020-11-09 22:00:00 14.7 3 Sudoeste 6 Sur 0 -- -- 89
2020-11-09 21:00:00 15 3 Sur 6 Sudoeste 0 -- -- 89
2020-11-09 20:00:00 15.3 2 Sudoeste 12 Sur 0 -- -- 88
2020-11-09 19:00:00 15.8 6 Sur 11 Sur 0 -- -- 84
2020-11-09 18:00:00 16.6 4 Sur 8 Sur 0 -- -- 78
2020-11-09 17:00:00 18.3 3 Sur 7 Este 0 -- -- 69
2020-11-09 16:00:00 20.7 0 Calma 12 Este 0 -- -- 62
2020-11-09 15:00:00 19.9 5 Sudeste 18 Sudeste 0 -- -- 65
2020-11-09 14:00:00 19.4 9 Sudeste 15 Este 0 -- -- 68
2020-11-09 13:00:00 18.7 5 Nordeste 13 Este 0 -- -- 70
2020-11-09 12:00:00 19.1 5 Nordeste 12 Nordeste 0 -- -- 69
2020-11-09 11:00:00 18.5 6 Este 12 Nordeste 0 -- -- 78
2020-11-09 10:00:00 18.3 6 Este 9 Sudeste 0 -- -- 76
2020-11-09 09:00:00 16.2 0 Calma 5 Oeste 0 -- -- 80
2020-11-09 08:00:00 13.5 4 Oeste 7 Oeste 0 -- -- 88
2020-11-09 07:00:00 13.3 0 Calma 4 Sudoeste 0 -- -- 84
2020-11-09 06:00:00 13.5 0 Calma 7 Sudoeste 0 -- -- 86
2020-11-09 05:00:00 13.8 3 Sur 6 Sudeste 0 -- -- 82
2020-11-09 04:00:00 14.2 4 Sur 5 Noroeste 0 -- -- 81
2020-11-09 03:00:00 14.2 3 Oeste 5 Oeste 0 -- -- 81
2020-11-09 02:00:00 14.2 3 Oeste 6 Sudoeste 0 -- -- 81
2020-11-09 01:00:00 14 3 Noroeste 4 Oeste 0 -- -- 79
2020-11-09 00:00:00 14 2 Oeste 4 Sudoeste 0 -- -- 81
2020-11-08 23:00:00 14.4 0 Calma 4 Sudoeste 0 -- -- 78
2020-11-08 22:00:00 14.7 2 Sur 8 Sudeste 0 -- -- 73
2020-11-08 21:00:00 14.9 3 Oeste 6 Sudoeste 0 -- -- 75
2020-11-08 20:00:00 15 0 Calma 5 Sur 0 -- -- 73
2020-11-08 19:00:00 15.4 3 Oeste 5 Oeste 0 -- -- 75
2020-11-08 18:00:00 16.1 0 Calma 5 Oeste 0 -- -- 72
2020-11-08 17:00:00 17.5 3 Sur 8 Sudeste 0 -- -- 67
2020-11-08 16:00:00 19.2 5 Sudeste 10 Sudeste 0 -- -- 59
2020-11-08 15:00:00 19.9 3 Sudeste 9 Sudeste 0 -- -- 60
2020-11-08 14:00:00 19.6 8 Sudeste 17 Sudeste 0 -- -- 59
2020-11-08 13:00:00 19.8 12 Sudeste 17 Sudeste 0 -- -- 57
2020-11-08 12:00:00 20 10 Sudeste 15 Sudeste 0 -- -- 56
2020-11-08 11:00:00 20.7 5 Este 9 Este 0 -- -- 51
2020-11-08 10:00:00 18.3 3 Oeste 10 Oeste 0 -- -- 60
2020-11-08 09:00:00 16 4 Sudoeste 9 Sudeste 0 -- -- 70
2020-11-08 08:00:00 17.8 6 Sudeste 14 Oeste 0 -- -- 49
2020-11-08 07:00:00 16 4 Sudeste 10 Oeste 0 -- -- 57
2020-11-08 06:00:00 15.4 6 Oeste 12 Oeste 0 -- -- 64
2020-11-08 05:00:00 14.3 5 Sudoeste 13 Sudeste 0 -- -- 79
2020-11-08 04:00:00 15.6 7 Sur 13 Sudeste 0 -- -- 64
2020-11-08 03:00:00 14.7 4 Sudoeste 8 Oeste 0 -- -- 72
2020-11-08 02:00:00 15.7 5 Sur 11 Sur 0 -- -- 63
2020-11-08 01:00:00 17.1 0 Calma 14 Oeste 0 -- -- 56
2020-11-08 00:00:00 17.2 3 Sudoeste 13 Oeste 0 -- -- 54
2020-11-07 23:00:00 16.9 5 Oeste 14 Noroeste 0 -- -- 56
2020-11-07 22:00:00 17.4 8 Noroeste 14 Noroeste 0 -- -- 59
2020-11-07 21:00:00 17.2 4 Nordeste 23 Oeste 0 -- -- 66
2020-11-07 20:00:00 17.6 11 Oeste 31 Oeste 0 -- -- 64
2020-11-07 19:00:00 17.6 22 Oeste 32 Oeste 0 -- -- 64
2020-11-07 18:00:00 17.5 14 Oeste 29 Oeste 0 -- -- 65
2020-11-07 17:00:00 18 15 Oeste 30 Oeste 0 -- -- 68
2020-11-07 16:00:00 18.8 20 Oeste 34 Oeste 0 -- -- 68
2020-11-07 15:00:00 19.1 18 Oeste 39 Oeste 0 -- -- 66
2020-11-07 14:00:00 19.5 21 Oeste 37 Oeste 0 -- -- 62
2020-11-07 13:00:00 19.6 18 Noroeste 39 Noroeste 0 -- -- 57
2020-11-07 12:00:00 18.9 15 Noroeste 28 Oeste 0 -- -- 69
2020-11-07 11:00:00 17.5 9 Oeste 21 Oeste 0.4 -- -- 80
2020-11-07 10:00:00 18.4 5 Noroeste 12 Noroeste 0 -- -- 73
2020-11-07 09:00:00 17.2 4 Oeste 20 Oeste 0 -- -- 75
2020-11-07 08:00:00 17.1 7 Noroeste 18 Oeste 0 -- -- 73
2020-11-07 07:00:00 16.3 6 Sudoeste 15 Oeste 0 -- -- 74
2020-11-07 06:00:00 16.1 7 Oeste 15 Sudoeste 0 -- -- 74
2020-11-07 05:00:00 15.6 6 Oeste 12 Sudoeste 0.2 -- -- 79
2020-11-07 04:00:00 15.7 7 Sudoeste 12 Sudoeste 0.2 -- -- 81
2020-11-07 03:00:00 15.4 6 Sudoeste 27 Oeste 1.6 -- -- 85
2020-11-07 02:00:00 15.2 17 Noroeste 58 Oeste 4 -- -- 82
2020-11-07 01:00:00 19.6 44 Noroeste 71 Noroeste 0 -- -- 55
2020-11-07 00:00:00 19.6 36 Oeste 55 Oeste 0 -- -- 57
2020-11-06 23:00:00 19.5 10 Noroeste 59 Oeste 2 -- -- 58
2020-11-06 22:00:00 22.9 12 Oeste 51 Oeste 0 -- -- 41
2020-11-06 21:00:00 20.3 38 Oeste 71 Sudoeste 0.2 -- -- 58
2020-11-06 20:00:00 25.2 18 Oeste 29 Oeste 0 -- -- 34
2020-11-06 19:00:00 25.7 4 Noroeste 17 Sudoeste 0 -- -- 28
2020-11-06 18:00:00 25.4 7 Oeste 12 Oeste 0 -- -- 30
2020-11-06 17:00:00 24 3 Sudoeste 27 Sudeste 0 -- -- 32
2020-11-06 16:00:00 23.3 19 Sudeste 34 Sudeste 0 -- -- 44
2020-11-06 15:00:00 24.3 15 Sudeste 32 Este 0 -- -- 38
2020-11-06 14:00:00 22.5 17 Sudeste 33 Sudeste 0 -- -- 45
2020-11-06 13:00:00 23.7 21 Este 37 Sudeste 0 -- -- 42
2020-11-06 12:00:00 23.2 14 Este 31 Sudeste 0 -- -- 41
2020-11-06 11:00:00 24.6 10 Sudeste 16 Este 0 -- -- 38
2020-11-06 10:00:00 24 10 Sudeste 23 Este 0 -- -- 31
2020-11-06 09:00:00 23.6 7 Nordeste 17 Este 0 -- -- 31
2020-11-06 08:00:00 22.5 7 Sudeste 21 Este 0 -- -- 39
2020-11-06 07:00:00 22.8 6 Este 19 Sudeste 0 -- -- 33
2020-11-06 06:00:00 23.2 11 Sudeste 26 Sudeste 0 -- -- 33
2020-11-06 05:00:00 23.4 13 Este 23 Este 0 -- -- 33
2020-11-06 04:00:00 23.5 12 Sudeste 26 Este 0 -- -- 32
2020-11-06 03:00:00 23.2 9 Sudeste 17 Sudeste 0 -- -- 30
2020-11-06 02:00:00 23.5 3 Este 17 Este 0 -- -- 27
2020-11-06 01:00:00 23 6 Sudeste 23 Noroeste 0 -- -- 30
2020-11-06 00:00:00 22.6 14 Noroeste 29 Noroeste 0 -- -- 33
2020-11-05 23:00:00 22 15 Noroeste 26 Noroeste 0 -- -- 37
2020-11-05 22:00:00 20.4 8 Oeste 14 Noroeste 0 -- -- 44
2020-11-05 21:00:00 20.6 4 Oeste 11 Noroeste 0 -- -- 45
2020-11-05 20:00:00 20.9 5 Norte 17 Norte 0 -- -- 43
2020-11-05 19:00:00 20.9 7 Nordeste 19 Nordeste 0 -- -- 45
2020-11-05 18:00:00 21 8 Sudeste 17 Este 0 -- -- 49
2020-11-05 17:00:00 21.4 6 Sudeste 18 Este 0 -- -- 47
2020-11-05 16:00:00 21.7 13 Sudeste 25 Sudeste 0 -- -- 48
2020-11-05 15:00:00 19.9 12 Sudeste 44 Este 0 -- -- 64
2020-11-05 14:00:00 20.1 22 Sudeste 47 Este 0 -- -- 63
2020-11-05 13:00:00 19.7 28 Este 47 Este 0 -- -- 63
2020-11-05 12:00:00 20.6 21 Este 33 Este 0 -- -- 53
2020-11-05 11:00:00 19.4 13 Este 27 Este 0.2 -- -- 57
2020-11-05 10:00:00 16.8 4 Norte 17 Oeste 0.6 -- -- 82
2020-11-05 09:00:00 17.3 9 Sudeste 15 Sudeste 0.2 -- -- 77
2020-11-05 08:00:00 18 5 Sur 14 Sudeste 0 -- -- 69
2020-11-05 07:00:00 17.7 2 Noroeste 9 Sudeste 0 -- -- 70
2020-11-05 06:00:00 17.6 4 Sudeste 17 Nordeste 0 -- -- 72
2020-11-05 05:00:00 16.5 5 Sur 16 Sudoeste 0 -- -- 75
2020-11-05 04:00:00 15.2 9 Noroeste 16 Oeste 1 -- -- 90
2020-11-05 03:00:00 15.6 6 Sudeste 14 Sur 5.2 -- -- 94
2020-11-05 02:00:00 16.2 4 Oeste 32 Este 2.6 -- -- 90
2020-11-05 01:00:00 16.9 26 Este 45 Este 0 -- -- 85
2020-11-05 00:00:00 16.3 19 Sudeste 34 Sudeste 0 -- -- 86
2020-11-04 23:00:00 16.5 17 Este 29 Este 0 -- -- 88
2020-11-04 22:00:00 16.4 5 Este 15 Este 0 -- -- 86
2020-11-04 21:00:00 16.3 9 Sudeste 17 Sudeste 0 -- -- 87
2020-11-04 20:00:00 15.8 0 Calma 13 Sudeste 0 -- -- 90
2020-11-04 19:00:00 15.9 10 Sudeste 17 Este 0 -- -- 90
2020-11-04 18:00:00 16.8 9 Este 24 Este 0 -- -- 82
2020-11-04 17:00:00 17.2 11 Este 22 Este 0 -- -- 76
2020-11-04 16:00:00 17.8 11 Este 15 Sudeste 0 -- -- 74
2020-11-04 15:00:00 18.4 5 Sudeste 19 Sudeste 0 -- -- 69
2020-11-04 14:00:00 18.7 10 Sudeste 23 Sudeste 0 -- -- 64
2020-11-04 13:00:00 19.9 12 Este 19 Sudeste 0 -- -- 55
2020-11-04 12:00:00 19.7 6 Este 13 Sudeste 0 -- -- 59
2020-11-04 11:00:00 18.1 0 Calma 4 Norte 0 -- -- 64
2020-11-04 10:00:00 17.2 0 Calma 6 Sur 0 -- -- 72
2020-11-04 09:00:00 16.5 2 Sudoeste 7 Oeste 0 -- -- 72
2020-11-04 08:00:00 15 0 Calma 5 Sur 0 -- -- 79
2020-11-04 07:00:00 14.3 0 Calma 5 Oeste 0 -- -- 81
2020-11-04 06:00:00 14.7 2 Oeste 9 Oeste 0 -- -- 78
2020-11-04 05:00:00 15 6 Oeste 8 Oeste 0 -- -- 78
2020-11-04 04:00:00 15.1 3 Sudoeste 8 Sudoeste 0 -- -- 78
2020-11-04 03:00:00 15.4 5 Sudoeste 9 Oeste 0 -- -- 80
2020-11-04 02:00:00 15.1 4 Sudeste 9 Sudeste 0 -- -- 84
2020-11-04 01:00:00 14.9 5 Oeste 10 Oeste 0 -- -- 90
2020-11-04 00:00:00 14.7 0 Calma 9 Sudeste 0 -- -- 91
2020-11-03 23:00:00 14.7 2 Sudeste 6 Sudeste 0 -- -- 92
2020-11-03 22:00:00 14.1 2 Sur 6 Sudeste 0 -- -- 88
2020-11-03 21:00:00 14.1 0 Calma 5 Oeste 0 -- -- 81
2020-11-03 20:00:00 14.4 4 Sur 8 Sudeste 0 -- -- 82
2020-11-03 19:00:00 15.3 4 Sudeste 6 Sudeste 0 -- -- 65
2020-11-03 18:00:00 15.6 0 Calma 8 Sur 0 -- -- 66
2020-11-03 17:00:00 17 4 Sur 8 Sudeste 0 -- -- 73
2020-11-03 16:00:00 19.5 3 Sudeste 13 Sudeste 0 -- -- 61
2020-11-03 15:00:00 17.7 10 Sudeste 15 Sudeste 0 -- -- 75
2020-11-03 14:00:00 20.1 6 Este 11 Este 0 -- -- 68
2020-11-03 13:00:00 18.7 5 Este 12 Este 0 -- -- 73
2020-11-03 12:00:00 16.9 6 Este 15 Sudeste 0 -- -- 81
2020-11-03 11:00:00 16.9 12 Sudeste 17 Sudeste 0 -- -- 81
2020-11-03 10:00:00 15.9 0 Calma 8 Este 0 -- -- 85
2020-11-03 09:00:00 15 5 Sudeste 11 Sudeste 0 -- -- 89
2020-11-03 08:00:00 14.3 3 Sudeste 7 Sudeste 0 -- -- 72
2020-11-03 07:00:00 15.9 3 Oeste 7 Sur 0 -- -- 47
2020-11-03 06:00:00 17.7 4 Oeste 9 Oeste 0 -- -- 42
2020-11-03 05:00:00 15.5 3 Oeste 5 Noroeste 0 -- -- 49
2020-11-03 04:00:00 13.8 0 Calma 3 Noroeste 0 -- -- 63
2020-11-03 03:00:00 14.2 4 Noroeste 6 Noroeste 0 -- -- 62
2020-11-03 02:00:00 13.9 3 Sur 6 Sur 0 -- -- 70
2020-11-03 01:00:00 15 0 Calma 6 Sur 0 -- -- 67
2020-11-03 00:00:00 15.4 0 Calma 4 Oeste 0 -- -- 60
2020-11-02 23:00:00 16.1 2 Sudeste 5 Sudeste 0 -- -- 58
2020-11-02 22:00:00 16.7 0 Calma 3 Noroeste 0 -- -- 55
2020-11-02 21:00:00 16.8 0 Calma 2 Sudoeste 0 -- -- 55
2020-11-02 20:00:00 16.5 0 Calma 3 Sudeste 0 -- -- 56
2020-11-02 19:00:00 15.8 0 Calma 4 Noroeste 0 -- -- 64
2020-11-02 18:00:00 16.2 0 Calma 5 Noroeste 0 -- -- 68
2020-11-02 17:00:00 17.3 0 Calma 5 Sudeste 0 -- -- 68
2020-11-02 16:00:00 18.7 3 Sudeste 6 Nordeste 0 -- -- 73
2020-11-02 15:00:00 19.5 3 Sudeste 8 Este 0 -- -- 70
2020-11-02 14:00:00 19 6 Este 10 Sudeste 0 -- -- 72
2020-11-02 13:00:00 18 5 Este 14 Sudeste 0 -- -- 76
2020-11-02 12:00:00 19.7 4 Sudeste 9 Este 0 -- -- 70
2020-11-02 11:00:00 16.7 5 Este 10 Sudeste 0 -- -- 82
2020-11-02 10:00:00 14.5 4 Sudeste 9 Este 0 -- -- 93
2020-11-02 09:00:00 14.2 2 Sudeste 5 Sudeste 0 -- -- 94
2020-11-02 08:00:00 13.4 0 Calma 4 Noroeste 0 -- -- 87
2020-11-02 07:00:00 15 0 Calma 5 Noroeste 0 -- -- 58
2020-11-02 06:00:00 15.8 0 Calma 7 Oeste 0 -- -- 57
2020-11-02 05:00:00 16.2 3 Sudoeste 7 Noroeste 0 -- -- 56
2020-11-02 04:00:00 16.1 0 Calma 4 Sur 0 -- -- 55
2020-11-02 03:00:00 16.1 2 Sudeste 5 Noroeste 0 -- -- 56
2020-11-02 02:00:00 15.7 2 Noroeste 4 Noroeste 0 -- -- 57
2020-11-02 01:00:00 16.7 0 Calma 3 Sur 0 -- -- 55
2020-11-02 00:00:00 16.9 0 Calma 5 Sudeste 0 -- -- 54
2020-11-01 23:00:00 18.7 0 Calma 5 Sudoeste 0 -- -- 47
2020-11-01 22:00:00 19 2 Oeste 5 Sudoeste 0 -- -- 45
2020-11-01 21:00:00 18.4 2 Oeste 4 Noroeste 0 -- -- 50
2020-11-01 20:00:00 17.8 0 Calma 5 Sudeste 0 -- -- 53
2020-11-01 19:00:00 17.2 0 Calma 3 Oeste 0 -- -- 74
2020-11-01 18:00:00 17.9 2 Noroeste 6 Oeste 0 -- -- 78
2020-11-01 17:00:00 19.2 0 Calma 3 Este 0 -- -- 75
2020-11-01 16:00:00 21 3 Este 5 Este 0 -- -- 70
2020-11-01 15:00:00 20.8 3 Sudeste 10 Sudeste 0 -- -- 69
2020-11-01 14:00:00 20.6 5 Nordeste 9 Este 0 -- -- 71
2020-11-01 13:00:00 20.5 5 Este 12 Este 0 -- -- 68
2020-11-01 12:00:00 20.5 5 Este 10 Sudeste 0 -- -- 67
2020-11-01 11:00:00 19.5 7 Sudeste 12 Sudeste 0 -- -- 71
2020-11-01 10:00:00 19.1 4 Este 9 Sudeste 0 -- -- 65
2020-11-01 09:00:00 18.1 3 Sudeste 6 Sudeste 0 -- -- 60
2020-11-01 08:00:00 14.3 3 Sudeste 10 Sur 0 -- -- 71
2020-11-01 07:00:00 15 2 Sur 6 Sudeste 0 -- -- 58
2020-11-01 06:00:00 16 0 Calma 5 Sur 0 -- -- 52
2020-11-01 05:00:00 16.4 0 Calma 4 Sudoeste 0 -- -- 51
2020-11-01 04:00:00 16.6 0 Calma 4 Sudoeste 0 -- -- 49
2020-11-01 03:00:00 17 0 Calma 6 Sudeste 0 -- -- 48
2020-11-01 02:00:00 16.5 3 Sudoeste 5 Oeste 0 -- -- 48
2020-11-01 01:00:00 16.1 0 Calma 5 Noroeste 0 -- -- 61
2020-11-01 00:00:00 16.3 0 Calma 8 Sudoeste 0 -- -- 58
2020-10-31 23:00:00 17.7 2 Sudoeste 9 Oeste 0 -- -- 50
2020-10-31 22:00:00 18 5 Oeste 8 Oeste 0 -- -- 59
2020-10-31 21:00:00 16.1 4 Noroeste 6 Oeste 0 -- -- 71
2020-10-31 20:00:00 16.3 5 Sur 7 Sur 0 -- -- 74
2020-10-31 19:00:00 16.8 4 Noroeste 9 Oeste 0 -- -- 72
2020-10-31 18:00:00 17.8 3 Noroeste 7 Oeste 0 -- -- 69
2020-10-31 17:00:00 19.8 3 Noroeste 7 Norte 0 -- -- 62
2020-10-31 16:00:00 23.1 3 Oeste 14 Oeste 0 -- -- 48
2020-10-31 15:00:00 22.9 5 Norte 19 Sudeste 0 -- -- 46
2020-10-31 14:00:00 22 12 Sudeste 22 Sudeste 0 -- -- 49
2020-10-31 13:00:00 22.3 10 Este 16 Este 0 -- -- 44
2020-10-31 12:00:00 21.9 9 Este 17 Este 0 -- -- 44
2020-10-31 11:00:00 21.6 12 Sudeste 17 Sudeste 0 -- -- 43
2020-10-31 10:00:00 22.4 8 Este 12 Sudeste 0 -- -- 43
2020-10-31 09:00:00 21 3 Este 8 Sudeste 0 -- -- 45
2020-10-31 08:00:00 19 4 Oeste 8 Oeste 0 -- -- 43
2020-10-31 07:00:00 18.5 4 Sudoeste 9 Sudeste 0 -- -- 46
2020-10-31 06:00:00 17.9 3 Sur 8 Sur 0 -- -- 49
2020-10-31 05:00:00 18.4 4 Sur 10 Sudeste 0 -- -- 48
2020-10-31 04:00:00 18.2 3 Sudeste 8 Sudeste 0 -- -- 50
2020-10-31 03:00:00 18 0 Calma 7 Oeste 0 -- -- 55
2020-10-31 02:00:00 17.2 3 Oeste 9 Oeste 0 -- -- 60
2020-10-31 01:00:00 15.3 5 Oeste 7 Oeste 0 -- -- 86
2020-10-31 00:00:00 15.4 2 Sur 7 Sudoeste 0 -- -- 84
2020-10-30 23:00:00 15.5 3 Sur 9 Sur 0 -- -- 84
2020-10-30 22:00:00 15.7 3 Sudeste 5 Sudeste 0 -- -- 69
2020-10-30 21:00:00 15.7 3 Oeste 5 Noroeste 0 -- -- 73
2020-10-30 20:00:00 15.7 3 Sur 6 Sudoeste 0 -- -- 77
2020-10-30 19:00:00 16.2 4 Sur 10 Sur 0 -- -- 72
2020-10-30 18:00:00 17 3 Sur 12 Sudeste 0 -- -- 63
2020-10-30 17:00:00 18 6 Sur 12 Sudeste 0 -- -- 57
2020-10-30 16:00:00 19.7 9 Sudeste 15 Sudeste 0 -- -- 55
2020-10-30 15:00:00 20.5 9 Sudeste 15 Sudeste 0 -- -- 55
2020-10-30 14:00:00 20.7 9 Sudeste 16 Sudeste 0 -- -- 55
2020-10-30 13:00:00 21.1 7 Sudeste 14 Sudeste 0 -- -- 55
2020-10-30 12:00:00 22.9 5 Nordeste 11 Este 0 -- -- 50
2020-10-30 11:00:00 23.4 2 Sudeste 5 Sudeste 0 -- -- 44
2020-10-30 10:00:00 21.5 0 Calma 8 Sudeste 0 -- -- 54
2020-10-30 09:00:00 18.5 0 Calma 4 Nordeste 0 -- -- 60
2020-10-30 08:00:00 15.5 0 Calma 4 Oeste 0 -- -- 66
2020-10-30 07:00:00 15.4 0 Calma -- -- 0 -- -- 64
2020-10-30 06:00:00 15.8 0 Calma 5 Oeste 0 -- -- 64
2020-10-30 05:00:00 16.3 2 Sudeste 6 Oeste 0 -- -- 65
2020-10-30 04:00:00 15.7 2 Sur 6 Sudoeste 0 -- -- 69
2020-10-30 03:00:00 15.5 6 Oeste 12 Sur 0 -- -- 72
2020-10-30 02:00:00 15.5 9 Sur 14 Sur 0 -- -- 72
2020-10-30 01:00:00 15.6 0 Calma 6 Sur 0 -- -- 70
2020-10-30 00:00:00 16.1 6 Sur 11 Sur 0 -- -- 68
2020-10-29 23:00:00 17.2 7 Sur 10 Sur 0 -- -- 66
2020-10-29 22:00:00 17.6 3 Sudoeste 10 Sur 0 -- -- 66
2020-10-29 21:00:00 16.2 0 Calma 4 Oeste 0 -- -- 72
2020-10-29 20:00:00 16.1 4 Noroeste 6 Noroeste 0 -- -- 71
2020-10-29 19:00:00 16.4 2 Sudeste 5 Sudoeste 0 -- -- 72
2020-10-29 18:00:00 17.7 5 Sur 14 Sudeste 0 -- -- 68
2020-10-29 17:00:00 17.9 3 Sudeste 14 Sudeste 0 -- -- 66
2020-10-29 16:00:00 21.9 3 Nordeste 10 Sudeste 0 -- -- 47
2020-10-29 15:00:00 20.8 7 Este 14 Este 0 -- -- 45
2020-10-29 14:00:00 21.3 4 Sudeste 13 Este 0 -- -- 37
2020-10-29 13:00:00 21.2 6 Este 13 Este 0 -- -- 32
2020-10-29 12:00:00 21.3 5 Este 12 Sudeste 0 -- -- 37
2020-10-29 11:00:00 21.8 6 Sudeste 9 Sudeste 0 -- -- 35
2020-10-29 10:00:00 21.7 4 Este 8 Este 0 -- -- 35
2020-10-29 09:00:00 19.6 2 Sudeste 4 Este 0 -- -- 43
2020-10-29 08:00:00 15.9 0 Calma 4 Sudoeste 0 -- -- 50
2020-10-29 07:00:00 14.9 2 Sur 5 Sur 0 -- -- 57
2020-10-29 06:00:00 15 3 Sur 5 Sudeste 0 -- -- 55
2020-10-29 05:00:00 15 2 Sudoeste 4 Sudoeste 0 -- -- 55
2020-10-29 04:00:00 15.2 2 Sur 5 Sudoeste 0 -- -- 53
2020-10-29 03:00:00 15.2 2 Sudoeste 5 Sudoeste 0 -- -- 54
2020-10-29 02:00:00 15.2 2 Sur 6 Sudeste 0 -- -- 51
2020-10-29 01:00:00 15.4 0 Calma 4 Sur 0 -- -- 53
2020-10-29 00:00:00 15.5 4 Oeste 5 Oeste 0 -- -- 48
2020-10-28 23:00:00 15.3 2 Sur 4 Sur 0 -- -- 49
2020-10-28 22:00:00 15.2 0 Calma 4 Sudoeste 0 -- -- 46
2020-10-28 21:00:00 15.6 0 Calma 4 Sur 0 -- -- 57
2020-10-28 20:00:00 15.5 2 Oeste 4 Sur 0 -- -- 59
2020-10-28 19:00:00 15.5 0 Calma 5 Sur 0 -- -- 59
2020-10-28 18:00:00 16.4 0 Calma 4 Sudeste 0 -- -- 50
2020-10-28 17:00:00 17.2 3 Noroeste 9 Sudeste 0 -- -- 59
2020-10-28 16:00:00 18.6 5 Sudeste 13 Sudeste 0 -- -- 54
2020-10-28 15:00:00 19 8 Sudeste 15 Sudeste 0 -- -- 53
2020-10-28 14:00:00 18.8 9 Sudeste 17 Sudeste 0 -- -- 56
2020-10-28 13:00:00 18.5 7 Este 14 Este 0 -- -- 61
2020-10-28 12:00:00 18.6 7 Sudeste 13 Este 0 -- -- 54
2020-10-28 11:00:00 18.3 7 Sudeste 13 Este 0 -- -- 55
2020-10-28 10:00:00 19.3 4 Este 8 Este 0 -- -- 50
2020-10-28 09:00:00 17.6 3 Este 4 Este 0 -- -- 47
2020-10-28 08:00:00 14.4 0 Calma 4 Sur 0 -- -- 49
2020-10-28 07:00:00 13.7 0 Calma 6 Sur 0 -- -- 49
2020-10-28 06:00:00 13.7 3 Sudeste 5 Sudeste 0 -- -- 49
2020-10-28 05:00:00 14.7 0 Calma 5 Oeste 0 -- -- 46
2020-10-28 04:00:00 14.9 2 Oeste 9 Oeste 0 -- -- 46
2020-10-28 03:00:00 13.9 0 Calma 4 Oeste 0 -- -- 51
2020-10-28 02:00:00 14.5 4 Oeste 10 Oeste 0 -- -- 51
2020-10-28 01:00:00 13.2 4 Sur 6 Sur 0 -- -- 59
2020-10-28 00:00:00 13.4 0 Calma 4 Sudoeste 0 -- -- 58
2020-10-27 23:00:00 13.3 0 Calma 5 Sudoeste 0 -- -- 58
2020-10-27 22:00:00 13.5 3 Oeste 5 Sudoeste 0 -- -- 59
2020-10-27 21:00:00 13.7 3 Oeste 4 Oeste 0 -- -- 57
2020-10-27 20:00:00 13.8 0 Calma 9 Sudoeste 0 -- -- 56
2020-10-27 19:00:00 14.5 4 Sur 21 Oeste 0 -- -- 53
2020-10-27 18:00:00 15.7 16 Oeste 27 Oeste 0 -- -- 52
2020-10-27 17:00:00 16.7 15 Oeste 27 Oeste 0 -- -- 44
2020-10-27 16:00:00 19.1 14 Oeste 29 Oeste 0 -- -- 38
2020-10-27 15:00:00 19.9 11 Sudoeste 27 Oeste 0 -- -- 32
2020-10-27 14:00:00 19.1 15 Sudoeste 27 Oeste 0 -- -- 38
2020-10-27 13:00:00 19.1 13 Oeste 23 Oeste 0 -- -- 35
2020-10-27 12:00:00 18.4 13 Este 20 Sudeste 0 -- -- 43
2020-10-27 11:00:00 18.4 9 Sudeste 18 Sudeste 0 -- -- 40
2020-10-27 10:00:00 18.7 9 Sudeste 13 Sudeste 0 -- -- 38
2020-10-27 09:00:00 16.4 6 Noroeste 13 Oeste 0 -- -- 39
2020-10-27 08:00:00 14.5 11 Oeste 18 Oeste 0 -- -- 41
2020-10-27 07:00:00 14.3 12 Oeste 20 Oeste 0 -- -- 42
2020-10-27 06:00:00 14.1 12 Oeste 18 Oeste 0 -- -- 42
2020-10-27 05:00:00 14.4 12 Oeste 19 Oeste 0 -- -- 41
2020-10-27 04:00:00 15.2 10 Oeste 17 Oeste 0 -- -- 39
2020-10-27 03:00:00 15 10 Oeste 19 Oeste 0 -- -- 40
2020-10-27 02:00:00 14.9 10 Oeste 20 Oeste 0 -- -- 42
2020-10-27 01:00:00 15.2 10 Oeste 18 Oeste 0 -- -- 41
2020-10-27 00:00:00 15 12 Oeste 21 Noroeste 0 -- -- 43
2020-10-26 23:00:00 15.4 11 Noroeste 22 Noroeste 0 -- -- 44
2020-10-26 22:00:00 15.8 12 Oeste 19 Oeste 0 -- -- 42
2020-10-26 21:00:00 15.6 11 Oeste 17 Oeste 0 -- -- 43
2020-10-26 20:00:00 16.1 4 Oeste 16 Oeste 0 -- -- 40
2020-10-26 19:00:00 16.7 9 Oeste 27 Oeste 0 -- -- 39
2020-10-26 18:00:00 17.2 11 Oeste 21 Noroeste 0 -- -- 37
2020-10-26 17:00:00 17.9 3 Sur 14 Sudeste 0 -- -- 40
2020-10-26 16:00:00 20.2 10 Sudeste 17 Sudeste 0 -- -- 33
2020-10-26 15:00:00 21.2 12 Este 26 Sudeste 0 -- -- 31
2020-10-26 14:00:00 21.2 15 Oeste 33 Sudoeste 0 -- -- 28
2020-10-26 13:00:00 21.2 11 Este 62 Noroeste 0 -- -- 33
2020-10-26 12:00:00 19.2 40 Noroeste 70 Oeste 0 -- -- 32
2020-10-26 11:00:00 18.5 41 Oeste 67 Oeste 0 -- -- 33
2020-10-26 10:00:00 18.9 34 Noroeste 70 Noroeste 0 -- -- 31
2020-10-26 09:00:00 18 43 Noroeste 76 Noroeste 0 -- -- 31
2020-10-26 08:00:00 17.3 50 Noroeste 72 Noroeste 0 -- -- 41
2020-10-26 07:00:00 17.9 39 Oeste 83 Oeste 0 -- -- 47
2020-10-26 06:00:00 18.8 45 Noroeste 74 Noroeste 0 -- -- 46
2020-10-26 05:00:00 18.8 46 Noroeste 80 Noroeste 0 -- -- 51
2020-10-26 04:00:00 18.2 46 Noroeste 77 Noroeste 0 -- -- 55
2020-10-26 03:00:00 16.2 32 Oeste 57 Oeste 0 -- -- 84
2020-10-26 02:00:00 16.3 32 Oeste 54 Oeste 0 -- -- 81
2020-10-26 01:00:00 16.2 29 Oeste 53 Noroeste 0 -- -- 76
2020-10-26 00:00:00 16.2 33 Oeste 54 Oeste 0 -- -- 78
2020-10-25 23:00:00 16.4 32 Oeste 51 Oeste 0 -- -- 75
2020-10-25 22:00:00 17.4 28 Oeste 47 Oeste -- -- -- 61
2020-10-25 21:00:00 17 26 Oeste 43 Oeste 0 -- -- 68
2020-10-25 20:00:00 16.8 32 Oeste 49 Oeste 0 -- -- 76
2020-10-25 19:00:00 17.2 27 Oeste 50 Oeste 0 -- -- 75
2020-10-25 18:00:00 17.8 29 Oeste 56 Oeste 0 -- -- 70
2020-10-25 17:00:00 18.1 32 Oeste 52 Oeste 0 -- -- 68
2020-10-25 16:00:00 19.4 30 Oeste 55 Oeste 0 -- -- 59
2020-10-25 15:00:00 19.2 33 Oeste 57 Oeste 0 -- -- 58
2020-10-25 14:00:00 19.5 34 Oeste 52 Oeste 0 -- -- 59
2020-10-25 13:00:00 21.3 23 Oeste 37 Oeste 0 -- -- 45
2020-10-25 12:00:00 21.8 9 Noroeste 27 Oeste 0 -- -- 42
2020-10-25 11:00:00 21.8 5 Sudeste 13 Sudeste 0 -- -- 41
2020-10-25 10:00:00 19.8 4 Este 9 Sudeste 0 -- -- 50
2020-10-25 09:00:00 17.9 3 Nordeste 8 Sudeste 0 -- -- 53
2020-10-25 08:00:00 15.8 5 Sur 10 Este 0 -- -- 58
2020-10-25 07:00:00 15 5 Sur 10 Sudoeste 0 -- -- 57
2020-10-25 06:00:00 15.9 4 Sudeste 12 Sur 0 -- -- 57
2020-10-25 05:00:00 15.9 5 Sudoeste 14 Sudeste 0 -- -- 58
2020-10-25 04:00:00 15.9 3 Oeste 8 Oeste 0 -- -- 58
2020-10-25 03:00:00 16.8 2 Sur 7 Sudoeste 0 -- -- 57
2020-10-25 02:00:00 17.3 5 Oeste 12 Oeste 0 -- -- 53
2020-10-25 01:00:00 17.4 6 Oeste 11 Oeste 0 -- -- 54
2020-10-25 00:00:00 16.1 2 Oeste 14 Oeste 0 -- -- 59